createdAt,value
2018-09-05T00:00:54.871Z,24.40
2018-09-05T00:03:22.883Z,24.39
2018-09-05T00:05:50.617Z,24.36
2018-09-05T00:08:18.664Z,24.33
2018-09-05T00:10:46.423Z,24.30
2018-09-05T00:13:14.129Z,24.29
2018-09-05T00:15:42.307Z,24.28
2018-09-05T00:18:10.184Z,24.28
2018-09-05T00:20:37.913Z,24.26
2018-09-05T00:23:05.563Z,24.25
2018-09-05T00:25:33.439Z,24.24
2018-09-05T00:28:01.243Z,24.20
2018-09-05T00:30:29.228Z,24.20
2018-09-05T00:32:56.969Z,24.18
2018-09-05T00:35:24.699Z,24.16
2018-09-05T00:37:52.720Z,24.14
2018-09-05T00:40:20.981Z,24.13
2018-09-05T00:42:48.987Z,24.10
2018-09-05T00:45:18.013Z,24.09
2018-09-05T00:47:45.880Z,24.09
2018-09-05T00:50:14.151Z,24.06
2018-09-05T00:52:42.045Z,24.04
2018-09-05T00:55:09.681Z,24.05
2018-09-05T00:57:37.342Z,24.03
2018-09-05T01:00:05.189Z,24.03
2018-09-05T01:02:32.866Z,24.00
2018-09-05T01:05:00.753Z,23.97
2018-09-05T01:07:29.165Z,23.97
2018-09-05T01:09:57.385Z,23.98
2018-09-05T01:12:25.428Z,23.94
2018-09-05T01:14:54.310Z,23.92
2018-09-05T01:17:22.503Z,23.91
2018-09-05T01:19:50.349Z,23.91
2018-09-05T01:22:18.054Z,23.91
2018-09-05T01:24:46.309Z,23.90
2018-09-05T01:27:14.766Z,23.90
2018-09-05T01:29:42.529Z,23.89
2018-09-05T01:32:11.318Z,23.87
2018-09-05T01:34:40.281Z,23.86
2018-09-05T01:37:08.893Z,23.83
2018-09-05T01:39:36.903Z,23.83
2018-09-05T01:42:04.980Z,23.82
2018-09-05T01:44:32.931Z,23.80
2018-09-05T01:47:01.223Z,23.79
2018-09-05T01:49:29.128Z,23.78
2018-09-05T01:51:58.201Z,23.78
2018-09-05T01:54:25.911Z,23.77
2018-09-05T01:56:54.678Z,23.75
2018-09-05T01:59:22.514Z,23.74
2018-09-05T02:01:50.225Z,23.73
2018-09-05T02:04:19.175Z,23.72
2018-09-05T02:06:47.038Z,23.71
2018-09-05T02:09:14.780Z,23.69
2018-09-05T02:11:42.890Z,23.69
2018-09-05T02:14:11.542Z,23.68
2018-09-05T02:16:39.728Z,23.68
2018-09-05T02:19:07.332Z,23.67
2018-09-05T02:21:34.946Z,23.66
2018-09-05T02:24:03.268Z,23.64
2018-09-05T02:26:30.902Z,23.66
2018-09-05T02:28:58.809Z,23.66
2018-09-05T02:31:26.486Z,23.65
2018-09-05T02:33:54.406Z,23.64
2018-09-05T02:36:22.058Z,23.63
2018-09-05T02:38:49.741Z,23.61
2018-09-05T02:41:17.405Z,23.61
2018-09-05T02:43:50.763Z,23.58
2018-09-05T02:46:18.886Z,23.57
2018-09-05T02:48:47.065Z,23.56
2018-09-05T02:51:14.791Z,23.54
2018-09-05T02:53:42.492Z,23.53
2018-09-05T02:56:10.757Z,23.52
2018-09-05T02:58:38.730Z,23.52
2018-09-05T03:01:06.727Z,23.49
2018-09-05T03:03:34.879Z,23.48
2018-09-05T03:06:02.911Z,23.47
2018-09-05T03:08:30.574Z,23.46
2018-09-05T03:10:58.485Z,23.46
2018-09-05T03:13:26.470Z,23.46
2018-09-05T03:15:54.475Z,23.44
2018-09-05T03:18:22.368Z,23.42
2018-09-05T03:20:50.099Z,23.40
2018-09-05T03:23:18.079Z,23.40
2018-09-05T03:25:45.659Z,23.39
2018-09-05T03:28:13.271Z,23.37
2018-09-05T03:30:41.244Z,23.37
2018-09-05T03:33:08.963Z,23.35
2018-09-05T03:35:36.666Z,23.34
2018-09-05T03:38:04.653Z,23.32
2018-09-05T03:40:32.293Z,23.31
2018-09-05T03:43:00.286Z,23.30
2018-09-05T03:45:27.883Z,23.28
2018-09-05T03:47:55.534Z,23.28
2018-09-05T03:50:23.124Z,23.28
2018-09-05T03:52:51.111Z,23.27
2018-09-05T03:55:19.093Z,23.26
2018-09-05T03:57:46.937Z,23.26
2018-09-05T04:00:14.909Z,23.26
2018-09-05T04:02:43.159Z,23.24
2018-09-05T04:05:10.921Z,23.23
2018-09-05T04:07:38.942Z,23.22
2018-09-05T04:10:06.642Z,23.21
2018-09-05T04:12:38.802Z,23.22
2018-09-05T04:15:06.796Z,23.21
2018-09-05T04:17:34.813Z,23.18
2018-09-05T04:20:02.445Z,23.17
2018-09-05T04:22:30.132Z,23.17
2018-09-05T04:24:57.813Z,23.18
2018-09-05T04:27:26.028Z,23.17
2018-09-05T04:29:53.791Z,23.16
2018-09-05T04:32:21.641Z,23.15
2018-09-05T04:34:49.544Z,23.14
2018-09-05T04:37:17.164Z,23.13
2018-09-05T04:39:44.814Z,23.12
2018-09-05T04:42:12.466Z,23.08
2018-09-05T04:44:41.002Z,23.09
2018-09-05T04:47:09.233Z,23.12
2018-09-05T04:49:36.856Z,23.12
2018-09-05T04:52:04.766Z,23.12
2018-09-05T04:54:32.883Z,23.10
2018-09-05T04:57:00.723Z,23.08
2018-09-05T04:59:28.371Z,23.07
2018-09-05T05:01:56.362Z,23.06
2018-09-05T05:04:24.035Z,23.07
2018-09-05T05:06:51.916Z,23.06
2018-09-05T05:09:19.577Z,23.03
2018-09-05T05:11:47.799Z,23.04
2018-09-05T05:14:15.440Z,23.06
2018-09-05T05:16:43.093Z,23.07
2018-09-05T05:19:10.746Z,23.07
2018-09-05T05:21:38.424Z,23.06
2018-09-05T05:24:06.329Z,23.04
2018-09-05T05:26:33.987Z,23.07
2018-09-05T05:29:01.698Z,23.11
2018-09-05T05:31:29.360Z,23.15
2018-09-05T05:33:57.149Z,23.14
2018-09-05T05:36:24.818Z,23.17
2018-09-05T05:38:52.846Z,23.18
2018-09-05T05:41:20.485Z,23.19
2018-09-05T05:43:48.373Z,23.20
2018-09-05T05:46:16.376Z,23.22
2018-09-05T05:48:44.737Z,23.22
2018-09-05T05:54:02.633Z,23.19
2018-09-05T05:56:30.449Z,23.15
2018-09-05T05:58:58.699Z,23.18
2018-09-05T06:01:26.379Z,23.18
2018-09-05T06:03:54.551Z,23.18
2018-09-05T06:06:52.413Z,23.23
2018-09-05T06:09:20.008Z,23.27
2018-09-05T06:11:48.021Z,23.29
2018-09-05T06:14:15.640Z,23.32
2018-09-05T06:16:43.327Z,23.34
2018-09-05T06:19:11.251Z,23.36
2018-09-05T06:21:39.099Z,23.38
2018-09-05T06:24:07.051Z,23.39
2018-09-05T06:26:34.869Z,23.39
2018-09-05T06:29:02.929Z,23.37
2018-09-05T06:31:31.051Z,23.37
2018-09-05T06:33:59.072Z,23.35
2018-09-05T06:36:26.661Z,23.34
2018-09-05T06:38:54.812Z,23.35
2018-09-05T06:41:22.684Z,23.35
2018-09-05T06:43:50.720Z,23.37
2018-09-05T06:46:18.674Z,23.37
2018-09-05T06:48:46.302Z,23.36
2018-09-05T06:51:14.378Z,23.37
2018-09-05T06:53:42.033Z,23.38
2018-09-05T06:56:10.754Z,23.39
2018-09-05T06:58:38.553Z,23.40
2018-09-05T07:01:07.035Z,23.38
2018-09-05T07:03:35.453Z,23.38
2018-09-05T07:06:03.268Z,23.37
2018-09-05T07:08:30.929Z,23.38
2018-09-05T07:10:58.887Z,23.38
2018-09-05T07:13:26.493Z,23.39
2018-09-05T07:15:54.163Z,23.38
2018-09-05T07:18:22.204Z,23.40
2018-09-05T07:23:17.056Z,23.41
2018-09-05T07:25:44.720Z,23.43
2018-09-05T07:28:12.654Z,23.44
2018-09-05T07:30:40.574Z,23.43
2018-09-05T07:33:08.160Z,23.43
2018-09-05T07:35:36.194Z,23.45
2018-09-05T07:38:03.734Z,23.46
2018-09-05T07:40:32.053Z,23.43
2018-09-05T07:42:59.729Z,23.40
2018-09-05T07:45:27.444Z,23.42
2018-09-05T07:47:55.390Z,23.43
2018-09-05T07:50:23.294Z,23.42
2018-09-05T07:52:51.211Z,23.42
2018-09-05T07:55:19.236Z,23.43
2018-09-05T07:57:47.553Z,23.43
2018-09-05T08:00:15.495Z,23.45
2018-09-05T08:02:43.172Z,23.45
2018-09-05T08:05:11.074Z,23.45
2018-09-05T08:07:38.690Z,23.44
2018-09-05T08:10:06.356Z,23.46
2018-09-05T08:12:34.562Z,23.47
2018-09-05T08:15:02.180Z,23.47
2018-09-05T08:17:29.863Z,23.48
2018-09-05T08:19:57.465Z,23.48
2018-09-05T08:22:25.524Z,23.48
2018-09-05T08:24:53.481Z,23.52
2018-09-05T08:27:22.199Z,23.54
2018-09-05T08:29:50.530Z,23.57
2018-09-05T08:32:18.673Z,23.59
2018-09-05T08:34:46.710Z,23.58
2018-09-05T08:37:14.709Z,23.53
2018-09-05T08:39:42.533Z,23.52
2018-09-05T08:42:10.635Z,23.51
2018-09-05T08:44:38.464Z,23.55
2018-09-05T08:47:05.994Z,23.59
2018-09-05T08:49:33.876Z,23.62
2018-09-05T08:52:02.026Z,23.62
2018-09-05T08:54:29.645Z,23.65
2018-09-05T08:56:57.301Z,23.65
2018-09-05T08:59:25.210Z,23.66
2018-09-05T09:01:53.188Z,23.64
2018-09-05T09:04:21.089Z,23.63
2018-09-05T09:06:48.689Z,23.65
2018-09-05T09:09:16.443Z,23.67
2018-09-05T09:11:44.096Z,23.67
2018-09-05T09:14:11.973Z,23.67
2018-09-05T09:16:40.339Z,23.73
2018-09-05T09:19:08.485Z,23.75
2018-09-05T09:21:36.122Z,23.75
2018-09-05T09:24:04.162Z,23.74
2018-09-05T09:26:31.761Z,23.74
2018-09-05T09:29:00.017Z,23.74
2018-09-05T09:31:28.316Z,23.72
2018-09-05T09:33:56.062Z,23.73
2018-09-05T09:36:23.760Z,23.74
2018-09-05T09:38:51.701Z,23.75
2018-09-05T09:41:19.651Z,23.72
2018-09-05T09:43:47.582Z,23.74
2018-09-05T09:46:15.592Z,23.76
2018-09-05T09:48:43.202Z,23.77
2018-09-05T09:51:10.865Z,23.79
2018-09-05T09:53:38.555Z,23.81
2018-09-05T09:56:06.196Z,23.80
2018-09-05T09:58:34.167Z,23.81
2018-09-05T10:01:07.431Z,23.81
2018-09-05T10:03:40.864Z,23.85
2018-09-05T10:06:14.201Z,23.88
2018-09-05T10:08:47.437Z,23.89
2018-09-05T10:11:16.918Z,23.91
2018-09-05T10:13:50.482Z,23.92
2018-09-05T10:16:24.106Z,23.95
2018-09-05T10:18:52.972Z,24.03
2018-09-05T10:21:21.029Z,24.11
2018-09-05T10:23:48.673Z,24.15
2018-09-05T10:26:16.538Z,24.21
2018-09-05T10:28:44.494Z,24.25
2018-09-05T10:31:12.322Z,24.31
2018-09-05T10:33:40.185Z,24.35
2018-09-05T10:36:08.034Z,24.39
2018-09-05T10:38:35.742Z,24.45
2018-09-05T10:41:03.473Z,24.50
2018-09-05T10:43:31.101Z,24.54
2018-09-05T10:45:58.752Z,24.53
2018-09-05T10:48:26.501Z,24.52
2018-09-05T10:50:54.313Z,24.53
2018-09-05T10:53:21.955Z,24.50
2018-09-05T10:55:49.898Z,24.53
2018-09-05T10:58:17.876Z,24.57
2018-09-05T11:00:45.662Z,24.62
2018-09-05T11:03:13.565Z,24.63
2018-09-05T11:05:41.188Z,24.62
2018-09-05T11:08:08.845Z,24.62
2018-09-05T11:10:36.475Z,24.64
2018-09-05T11:13:04.745Z,24.75
2018-09-05T11:15:32.686Z,24.84
2018-09-05T11:18:00.318Z,24.85
2018-09-05T11:20:28.036Z,24.87
2018-09-05T11:22:55.696Z,24.88
2018-09-05T11:25:23.782Z,24.91
2018-09-05T11:27:51.428Z,24.94
2018-09-05T11:30:19.621Z,24.95
2018-09-05T11:32:47.302Z,24.95
2018-09-05T11:35:15.208Z,24.92
2018-09-05T11:37:42.873Z,24.94
2018-09-05T11:40:10.980Z,24.95
2018-09-05T11:42:38.927Z,24.97
2018-09-05T11:45:06.642Z,24.99
2018-09-05T11:47:34.494Z,25.05
2018-09-05T11:50:02.110Z,25.12
2018-09-05T11:52:31.039Z,25.17
2018-09-05T11:54:59.108Z,25.20
2018-09-05T11:57:26.848Z,25.23
2018-09-05T11:59:55.262Z,25.29
2018-09-05T12:02:23.182Z,25.33
2018-09-05T12:04:51.583Z,25.36
2018-09-05T12:07:19.433Z,25.36
2018-09-05T12:09:47.092Z,25.42
2018-09-05T12:12:14.939Z,25.45
2018-09-05T12:14:42.531Z,25.50
2018-09-05T12:17:10.373Z,25.52
2018-09-05T12:19:38.073Z,25.55
2018-09-05T12:22:05.915Z,25.60
2018-09-05T12:24:33.861Z,25.68
2018-09-05T12:27:01.637Z,25.70
2018-09-05T12:29:30.676Z,25.70
2018-09-05T12:31:58.801Z,25.74
2018-09-05T12:34:26.432Z,25.80
2018-09-05T12:36:54.085Z,25.87
2018-09-05T12:39:21.759Z,25.92
2018-09-05T12:41:49.415Z,25.91
2018-09-05T12:44:17.398Z,26.01
2018-09-05T12:46:45.206Z,26.06
2018-09-05T12:49:12.809Z,26.10
2018-09-05T12:51:41.033Z,26.13
2018-09-05T12:54:09.447Z,26.16
2018-09-05T12:56:37.079Z,26.20
2018-09-05T12:59:04.757Z,26.23
2018-09-05T13:01:32.389Z,26.27
2018-09-05T13:04:00.395Z,26.31
2018-09-05T13:06:28.272Z,26.35
2018-09-05T13:08:56.472Z,26.39
2018-09-05T13:11:24.148Z,26.43
2018-09-05T13:13:52.438Z,26.47
2018-09-05T13:16:20.371Z,26.52
2018-09-05T13:18:48.276Z,26.57
2018-09-05T13:21:15.954Z,26.62
2018-09-05T13:23:44.196Z,26.64
2018-09-05T13:26:12.425Z,26.66
2018-09-05T13:28:40.088Z,26.69
2018-09-05T13:31:08.231Z,26.72
2018-09-05T13:33:35.921Z,26.74
2018-09-05T13:36:03.600Z,26.76
2018-09-05T13:38:31.511Z,26.80
2018-09-05T13:40:59.174Z,26.83
2018-09-05T13:43:26.869Z,26.86
2018-09-05T13:45:54.495Z,26.87
2018-09-05T13:48:22.166Z,26.90
2018-09-05T13:50:49.889Z,26.89
2018-09-05T13:53:17.573Z,26.90
2018-09-05T13:55:45.586Z,26.92
2018-09-05T13:58:13.380Z,26.94
2018-09-05T14:00:41.338Z,27.01
2018-09-05T14:03:09.365Z,27.07
2018-09-05T14:05:36.961Z,27.14
2018-09-05T14:08:04.963Z,27.23
2018-09-05T14:10:33.235Z,27.31
2018-09-05T14:13:01.606Z,27.40
2018-09-05T14:15:29.244Z,27.51
2018-09-05T14:17:57.148Z,27.73
2018-09-05T14:20:24.896Z,28.45
2018-09-05T14:22:52.515Z,29.05
2018-09-05T14:25:20.676Z,29.47
2018-09-05T14:27:48.328Z,29.77
2018-09-05T14:30:16.307Z,29.94
2018-09-05T14:32:44.288Z,30.07
2018-09-05T14:35:12.227Z,30.15
2018-09-05T14:37:40.208Z,30.20
2018-09-05T14:40:07.972Z,30.27
2018-09-05T14:42:35.939Z,30.32
2018-09-05T14:45:03.608Z,30.36
2018-09-05T14:47:31.573Z,30.43
2018-09-05T14:49:59.578Z,30.50
2018-09-05T14:52:27.484Z,30.60
2018-09-05T14:54:55.170Z,30.67
2018-09-05T14:57:23.411Z,30.77
2018-09-05T14:59:51.343Z,30.88
2018-09-05T15:02:19.248Z,30.96
2018-09-05T15:04:47.598Z,31.04
2018-09-05T15:07:15.224Z,31.11
2018-09-05T15:09:42.890Z,31.19
2018-09-05T15:12:10.771Z,31.26
2018-09-05T15:14:38.850Z,31.33
2018-09-05T15:17:07.203Z,31.39
2018-09-05T15:19:35.166Z,31.44
2018-09-05T15:22:02.956Z,31.42
2018-09-05T15:24:30.751Z,31.44
2018-09-05T15:26:58.388Z,31.41
2018-09-05T15:29:26.057Z,31.34
2018-09-05T15:31:54.339Z,30.57
2018-09-05T15:34:22.222Z,30.73
2018-09-05T15:36:49.934Z,30.86
2018-09-05T15:39:17.627Z,30.87
2018-09-05T15:41:45.289Z,30.77
2018-09-05T15:44:12.908Z,30.60
2018-09-05T15:46:40.625Z,30.37
2018-09-05T15:49:08.638Z,30.14
2018-09-05T15:51:36.610Z,29.86
2018-09-05T15:54:04.355Z,29.62
2018-09-05T15:56:32.212Z,29.35
2018-09-05T15:58:59.919Z,29.11
2018-09-05T16:01:27.778Z,28.94
2018-09-05T16:03:55.737Z,28.80
2018-09-05T16:06:23.628Z,28.71
2018-09-05T16:08:51.583Z,28.64
2018-09-05T16:11:19.278Z,28.57
2018-09-05T16:13:47.285Z,28.52
2018-09-05T16:16:15.198Z,28.49
2018-09-05T16:18:42.871Z,28.43
2018-09-05T16:21:11.009Z,28.35
2018-09-05T16:23:38.913Z,28.27
2018-09-05T16:26:06.822Z,28.20
2018-09-05T16:28:34.718Z,28.16
2018-09-05T16:31:02.565Z,28.10
2018-09-05T16:33:31.136Z,28.05
2018-09-05T16:35:58.800Z,28.00
2018-09-05T16:38:26.526Z,27.94
2018-09-05T16:40:54.838Z,27.90
2018-09-05T16:43:22.482Z,27.85
2018-09-05T16:45:50.160Z,27.79
2018-09-05T16:48:17.910Z,27.74
2018-09-05T16:50:45.973Z,27.68
2018-09-05T16:53:13.629Z,27.61
2018-09-05T16:55:41.240Z,27.56
2018-09-05T16:58:08.895Z,27.54
2018-09-05T17:00:36.756Z,27.51
2018-09-05T17:03:04.397Z,27.51
2018-09-05T17:05:32.008Z,27.51
2018-09-05T17:07:59.757Z,27.53
2018-09-05T17:10:27.381Z,27.56
2018-09-05T17:12:55.239Z,27.63
2018-09-05T17:15:22.934Z,27.68
2018-09-05T17:17:50.561Z,27.69
2018-09-05T17:20:18.781Z,27.75
2018-09-05T17:22:46.475Z,27.72
2018-09-05T17:25:14.108Z,27.63
2018-09-05T17:27:41.855Z,27.52
2018-09-05T17:30:09.480Z,27.43
2018-09-05T17:32:37.154Z,27.31
2018-09-05T17:35:05.656Z,27.29
2018-09-05T17:37:33.393Z,27.29
2018-09-05T17:40:01.944Z,27.28
2018-09-05T17:42:29.590Z,27.25
2018-09-05T17:44:57.231Z,27.16
2018-09-05T17:47:24.929Z,27.08
2018-09-05T17:49:52.882Z,27.05
2018-09-05T17:52:21.116Z,26.98
2018-09-05T17:54:48.865Z,26.91
2018-09-05T17:57:16.549Z,26.84
2018-09-05T17:59:44.263Z,26.78
2018-09-05T18:02:11.905Z,26.73
2018-09-05T18:04:39.842Z,26.67
2018-09-05T18:07:07.852Z,26.64
2018-09-05T18:09:35.855Z,26.61
2018-09-05T18:12:03.811Z,26.57
2018-09-05T18:14:31.926Z,26.55
2018-09-05T18:16:59.647Z,26.51
2018-09-05T18:19:27.588Z,26.48
2018-09-05T18:21:55.495Z,26.43
2018-09-05T18:24:23.449Z,26.39
2018-09-05T18:26:51.725Z,26.32
2018-09-05T18:29:19.653Z,26.29
2018-09-05T18:31:47.293Z,26.26
2018-09-05T18:34:15.141Z,26.24
2018-09-05T18:36:42.881Z,26.21
2018-09-05T18:39:10.783Z,26.19
2018-09-05T18:41:38.592Z,26.16
2018-09-05T18:44:06.246Z,26.14
2018-09-05T18:46:33.906Z,26.13
2018-09-05T18:49:01.607Z,26.11
2018-09-05T18:51:29.478Z,26.08
2018-09-05T18:53:57.305Z,26.06
2018-09-05T18:56:25.118Z,26.03
2018-09-05T18:58:52.885Z,26.03
2018-09-05T19:01:20.553Z,26.03
2018-09-05T19:03:48.149Z,25.99
2018-09-05T19:06:15.767Z,25.96
2018-09-05T19:08:43.810Z,25.94
2018-09-05T19:11:11.699Z,25.93
2018-09-05T19:13:39.304Z,25.91
2018-09-05T19:16:06.984Z,25.89
2018-09-05T19:18:35.291Z,25.89
2018-09-05T19:21:03.253Z,25.87
2018-09-05T19:23:31.583Z,25.83
2018-09-05T19:25:59.552Z,25.78
2018-09-05T19:28:27.512Z,25.76
2018-09-05T19:30:55.145Z,25.71
2018-09-05T19:33:23.164Z,25.68
2018-09-05T19:35:50.813Z,25.67
2018-09-05T19:38:18.466Z,25.61
2018-09-05T19:40:46.706Z,25.59
2018-09-05T19:43:14.863Z,25.55
2018-09-05T19:45:42.582Z,25.51
2018-09-05T19:48:10.668Z,25.50
2018-09-05T19:50:38.749Z,25.47
2018-09-05T19:53:06.784Z,25.44
2018-09-05T19:55:34.368Z,25.45
2018-09-05T19:58:02.036Z,25.47
2018-09-05T20:00:30.155Z,25.48
2018-09-05T20:02:57.849Z,25.46
2018-09-05T20:05:26.118Z,25.46
2018-09-05T20:07:53.707Z,25.48
2018-09-05T20:10:21.870Z,25.46
2018-09-05T20:12:50.129Z,25.45
2018-09-05T20:15:18.036Z,25.44
2018-09-05T20:17:45.695Z,25.44
2018-09-05T20:20:13.420Z,25.41
2018-09-05T20:22:41.226Z,25.35
2018-09-05T20:25:09.403Z,25.34
2018-09-05T20:27:37.585Z,25.33
2018-09-05T20:30:05.260Z,25.31
2018-09-05T20:32:32.901Z,25.30
2018-09-05T20:35:00.535Z,25.30
2018-09-05T20:37:28.223Z,25.28
2018-09-05T20:39:55.854Z,25.27
2018-09-05T20:42:24.029Z,25.27
2018-09-05T20:44:51.873Z,25.26
2018-09-05T20:47:19.784Z,25.25
2018-09-05T20:49:47.753Z,25.24
2018-09-05T20:52:15.689Z,25.23
2018-09-05T20:54:43.373Z,25.23
2018-09-05T20:57:11.248Z,25.22
2018-09-05T20:59:38.928Z,25.21
2018-09-05T21:02:06.852Z,25.21
2018-09-05T21:04:34.541Z,25.19
2018-09-05T21:07:02.608Z,25.18
2018-09-05T21:09:30.570Z,25.17
2018-09-05T21:11:58.349Z,25.14
2018-09-05T21:14:26.003Z,25.08
2018-09-05T21:16:54.049Z,25.05
2018-09-05T21:19:22.001Z,25.02
2018-09-05T21:21:50.012Z,24.98
2018-09-05T21:24:17.839Z,24.96
2018-09-05T21:26:45.558Z,24.92
2018-09-05T21:29:13.203Z,24.89
2018-09-05T21:31:40.957Z,24.86
2018-09-05T21:34:08.578Z,24.85
2018-09-05T21:36:36.675Z,24.84
2018-09-05T21:39:06.400Z,24.86
2018-09-05T21:41:34.587Z,24.87
2018-09-05T21:44:02.533Z,24.87
2018-09-05T21:46:30.562Z,24.84
2018-09-05T21:48:58.261Z,24.83
2018-09-05T21:51:26.232Z,24.80
2018-09-05T21:53:53.910Z,24.78
2018-09-05T21:56:21.788Z,24.78
2018-09-05T21:58:49.415Z,24.78
2018-09-05T22:01:19.180Z,24.77
2018-09-05T22:03:48.085Z,24.76
2018-09-05T22:06:15.701Z,24.74
2018-09-05T22:08:43.805Z,24.74
2018-09-05T22:11:17.145Z,24.73
2018-09-05T22:13:45.274Z,24.71
2018-09-05T22:16:13.132Z,24.71
2018-09-05T22:18:40.753Z,24.69
2018-09-05T22:21:08.403Z,24.70
2018-09-05T22:23:36.450Z,24.67
2018-09-05T22:26:04.042Z,24.65
2018-09-05T22:28:31.779Z,24.64
2018-09-05T22:30:59.642Z,24.64
2018-09-05T22:33:27.279Z,24.62
2018-09-05T22:35:55.127Z,24.63
2018-09-05T22:38:23.348Z,24.61
2018-09-05T22:40:52.189Z,24.61
2018-09-05T22:43:31.531Z,24.61
2018-09-05T22:46:10.897Z,24.59
2018-09-05T22:49:04.762Z,24.58
2018-09-05T22:52:19.241Z,24.57
2018-09-05T22:55:04.585Z,24.56
2018-09-05T22:58:45.404Z,24.56
2018-09-05T23:01:51.591Z,24.55
2018-09-05T23:06:37.727Z,24.54
2018-09-05T23:09:07.504Z,24.52
2018-09-05T23:11:51.226Z,24.50
2018-09-05T23:14:41.554Z,24.50
2018-09-05T23:18:23.677Z,24.51
2018-09-05T23:21:15.060Z,24.53
2018-09-05T23:23:55.012Z,24.53
2018-09-05T23:26:22.961Z,24.54
2018-09-05T23:28:50.573Z,24.54
2018-09-05T23:31:18.497Z,24.53
2018-09-05T23:33:46.552Z,24.53
2018-09-05T23:36:14.463Z,24.53
2018-09-05T23:38:42.436Z,24.52
2018-09-05T23:41:10.417Z,24.51
2018-09-05T23:43:38.671Z,24.51
2018-09-05T23:46:06.319Z,24.50
2018-09-05T23:48:34.531Z,24.48
2018-09-05T23:51:03.577Z,24.46
2018-09-05T23:53:31.265Z,24.45
2018-09-05T23:55:59.263Z,24.45
2018-09-05T23:58:27.253Z,24.44
